Observation data for Turkey on 07/11/2018      Previous  Date       Current Mesonet Observations  Soil Data  Daily Summary Page  Observations in Plain Language
KTUR 110500Z 19004KT 24/19 A301 RMK A01 T02440191  RH  074%=      5-min Rain = 0
KTUR 110505Z 19003KT 24/19 A301 RMK A01 T02410191  RH  075%=      5-min Rain = 0
KTUR 110510Z 19004KT 24/19 A301 RMK A01 T02410191  RH  076%=      5-min Rain = 0
KTUR 110515Z 19003KT 24/19 A301 RMK A01 T02410191  RH  076%=      5-min Rain = 0
KTUR 110520Z 20003KT 24/19 A301 RMK A01 T02410191  RH  076%=      5-min Rain = 0
KTUR 110525Z 20003KT 24/19 A301 RMK A01 T02400190  RH  076%=      5-min Rain = 0
KTUR 110530Z 19004KT 24/19 A301 RMK A01 T02390191  RH  076%=      5-min Rain = 0
KTUR 110535Z 18003KT 24/19 A301 RMK A01 T02390191  RH  076%=      5-min Rain = 0
KTUR 110540Z 17002KT 24/19 A301 RMK A01 T02400191  RH  076%=      5-min Rain = 0
KTUR 110545Z 17002KT 24/19 A301 RMK A01 T02400191  RH  076%=      5-min Rain = 0
KTUR 110550Z 17002KT 24/19 A301 RMK A01 T02410192  RH  076%=      5-min Rain = 0
KTUR 110555Z 17000KT 24/19 A3011 RMK A01 T02410192  RH  076%=      5-min Rain = 0
KTUR 110600Z 13001KT 24/19 A301 RMK A01 T02380192  RH  078%=      5-min Rain = 0
KTUR 110605Z 13001KT 23/19 A301 RMK A01 T02340192  RH  080%=      5-min Rain = 0
KTUR 110610Z 11003KT 23/19 A301 RMK A01 T02330192  RH  080%=      5-min Rain = 0
KTUR 110615Z 09004KT 23/19 A301 RMK A01 T02330192  RH  080%=      5-min Rain = 0
KTUR 110620Z 09004KT 23/19 A301 RMK A01 T02320192  RH  081%=      5-min Rain = 0
KTUR 110625Z 08005KT 23/19 A301 RMK A01 T02310192  RH  081%=      5-min Rain = 0
KTUR 110630Z 07006KT 23/19 A301 RMK A01 T02300192  RH  081%=      5-min Rain = 0
KTUR 110635Z 08007KT 23/19 A301 RMK A01 T02300193  RH  082%=      5-min Rain = 0
KTUR 110640Z 08006KT 23/19 A301 RMK A01 T02310193  RH  081%=      5-min Rain = 0
KTUR 110645Z 08007KT 23/19 A301 RMK A01 T02310193  RH  081%=      5-min Rain = 0
KTUR 110650Z 08006KT 23/19 A301 RMK A01 T02310193  RH  081%=      5-min Rain = 0
KTUR 110655Z 08005KT 23/19 A301 RMK A01 T02310193  RH  082%=      5-min Rain = 0
KTUR 110700Z 09005KT 23/19 A301 RMK A01 T02300194  RH  082%=      5-min Rain = 0
KTUR 110705Z 10005KT 23/19 A301 RMK A01 T02310194  RH  082%=      5-min Rain = 0
KTUR 110710Z 10005KT 23/20 A301 RMK A01 T02330195  RH  081%=      5-min Rain = 0
KTUR 110715Z 10005KT 24/20 A301 RMK A01 T02350195  RH  080%=      5-min Rain = 0
KTUR 110720Z 10005KT 24/20 A301 RMK A01 T02350195  RH  080%=      5-min Rain = 0
KTUR 110725Z 09005KT 24/20 A301 RMK A01 T02350195  RH  080%=      5-min Rain = 0
KTUR 110730Z 10005KT 24/20 A301 RMK A01 T02350195  RH  080%=      5-min Rain = 0
KTUR 110735Z 12005KT 24/20 A301 RMK A01 T02360195  RH  080%=      5-min Rain = 0
KTUR 110740Z 12005KT 24/20 A301 RMK A01 T02360196  RH  080%=      5-min Rain = 0
KTUR 110745Z 12005KT 24/20 A301 RMK A01 T02360195  RH  080%=      5-min Rain = 0
KTUR 110750Z 13005KT 24/20 A301 RMK A01 T02350195  RH  080%=      5-min Rain = 0
KTUR 110755Z 13005KT 23/20 A301 RMK A01 T02340195  RH  081%=      5-min Rain = 0
KTUR 110800Z 15005KT 23/20 A301 RMK A01 T02330195  RH  081%=      5-min Rain = 0
KTUR 110805Z 17005KT 23/20 A301 RMK A01 T02330195  RH  081%=      5-min Rain = 0
KTUR 110810Z 16004KT 23/19 A301 RMK A01 T02330194  RH  081%=      5-min Rain = 0
KTUR 110815Z 15004KT 23/19 A301 RMK A01 T02330194  RH  081%=      5-min Rain = 0
KTUR 110820Z 14005KT 23/19 A301 RMK A01 T02320193  RH  081%=      5-min Rain = 0
KTUR 110825Z 15005KT 23/19 A301 RMK A01 T02320193  RH  081%=      5-min Rain = 0
KTUR 110830Z 15005KT 23/19 A301 RMK A01 T02320192  RH  080%=      5-min Rain = 0
KTUR 110835Z 16006KT 23/19 A301 RMK A01 T02330192  RH  080%=      5-min Rain = 0
KTUR 110840Z 16006KT 23/19 A3009 RMK A01 T02320192  RH  080%=      5-min Rain = 0
KTUR 110845Z 16006KT 23/19 A3009 RMK A01 T02320192  RH  080%=      5-min Rain = 0
KTUR 110850Z 16006KT 23/19 A3009 RMK A01 T02310191  RH  080%=      5-min Rain = 0
KTUR 110855Z 16006KT 23/19 A3009 RMK A01 T02300191  RH  081%=      5-min Rain = 0
KTUR 110900Z 17006KT 23/19 A3009 RMK A01 T02300190  RH  080%=      5-min Rain = 0
KTUR 110905Z 18005KT 23/19 A301 RMK A01 T02310189  RH  080%=      5-min Rain = 0
KTUR 110910Z 18006KT 23/19 A301 RMK A01 T02310188  RH  079%=      5-min Rain = 0
KTUR 110915Z 18006KT 23/19 A301 RMK A01 T02280188  RH  080%=      5-min Rain = 0
KTUR 110920Z 18006KT 23/19 A3009 RMK A01 T02290187  RH  080%=      5-min Rain = 0
KTUR 110925Z 18006KT 23/19 A3009 RMK A01 T02300186  RH  078%=      5-min Rain = 0
KTUR 110930Z 19006KT 23/19 A3009 RMK A01 T02310186  RH  078%=      5-min Rain = 0
KTUR 110935Z 19006KT 23/19 A3009 RMK A01 T02310185  RH  077%=      5-min Rain = 0
KTUR 110940Z 20006KT 23/19 A3009 RMK A01 T02320185  RH  077%=      5-min Rain = 0
KTUR 110945Z 21005KT 23/19 A3009 RMK A01 T02310185  RH  078%=      5-min Rain = 0
KTUR 110950Z 22005KT 23/19 A3009 RMK A01 T02290187  RH  079%=      5-min Rain = 0
KTUR 110955Z 22005KT 23/19 A3009 RMK A01 T02290188  RH  080%=      5-min Rain = 0
KTUR 111000Z 22006KT 23/19 A3008 RMK A01 T02280188  RH  080%=      5-min Rain = 0
KTUR 111005Z 22006KT 23/19 A3008 RMK A01 T02280188  RH  080%=      5-min Rain = 0
KTUR 111010Z 23006KT 23/19 A3008 RMK A01 T02290188  RH  080%=      5-min Rain = 0
KTUR 111015Z 22006KT 23/19 A3008 RMK A01 T02290186  RH  079%=      5-min Rain = 0
KTUR 111020Z 22007KT 23/19 A3007 RMK A01 T02290186  RH  079%=      5-min Rain = 0
KTUR 111025Z 22007KT 23/19 A3007 RMK A01 T02280186  RH  079%=      5-min Rain = 0
KTUR 111030Z 22007KT 23/19 A3007 RMK A01 T02280186  RH  079%=      5-min Rain = 0
KTUR 111035Z 23007KT 23/19 A3007 RMK A01 T02280187  RH  080%=      5-min Rain = 0
KTUR 111040Z 23007KT 23/19 A3008 RMK A01 T02270187  RH  080%=      5-min Rain = 0
KTUR 111045Z 23008KT 23/19 A3008 RMK A01 T02280187  RH  080%=      5-min Rain = 0
KTUR 111050Z 23008KT 23/19 A3008 RMK A01 T02290188  RH  080%=      5-min Rain = 0
KTUR 111055Z 22008KT 23/19 A3008 RMK A01 T02300189  RH  080%=      5-min Rain = 0
KTUR 111100Z 22008KT 23/19 A3008 RMK A01 T02310189  RH  080%=      5-min Rain = 0
KTUR 111105Z 22008KT 23/19 A3008 RMK A01 T02300190  RH  080%=      5-min Rain = 0
KTUR 111110Z 21007KT 23/19 A3008 RMK A01 T02300190  RH  080%=      5-min Rain = 0
KTUR 111115Z 21007KT 23/19 A3008 RMK A01 T02300190  RH  080%=      5-min Rain = 0
KTUR 111120Z 21008KT 23/19 A3008 RMK A01 T02300190  RH  081%=      5-min Rain = 0
KTUR 111125Z 21007KT 23/19 A3008 RMK A01 T02280190  RH  081%=      5-min Rain = 0
KTUR 111130Z 21007KT 23/19 A3008 RMK A01 T02270190  RH  082%=      5-min Rain = 0
KTUR 111135Z 21008KT 23/19 A3008 RMK A01 T02270190  RH  082%=      5-min Rain = 0
KTUR 111140Z 21008KT 23/19 A3008 RMK A01 T02270189  RH  081%=      5-min Rain = 0
KTUR 111145Z 21007KT 23/19 A3009 RMK A01 T02270189  RH  081%=      5-min Rain = 0
KTUR 111150Z 21007KT 23/19 A3009 RMK A01 T02280189  RH  081%=      5-min Rain = 0
KTUR 111155Z 21007KT 23/19 A3009 RMK A01 T02290189  RH  080%=      5-min Rain = 0
KTUR 111200Z 21007KT 23/19 A3009 RMK A01 T02300189  RH  079%=      5-min Rain = 0
KTUR 111205Z 20007KT 23/19 A3009 RMK A01 T02310189  RH  079%=      5-min Rain = 0
KTUR 111210Z 20007KT 23/19 A3009 RMK A01 T02320189  RH  079%=      5-min Rain = 0
KTUR 111215Z 20007KT 23/19 A3009 RMK A01 T02330188  RH  078%=      5-min Rain = 0
KTUR 111220Z 20006KT 23/19 A3009 RMK A01 T02330188  RH  078%=      5-min Rain = 0
KTUR 111225Z 19006KT 23/19 A3009 RMK A01 T02340189  RH  078%=      5-min Rain = 0
KTUR 111230Z 18006KT 24/19 A301 RMK A01 T02350189  RH  077%=      5-min Rain = 0
KTUR 111235Z 18007KT 24/19 A301 RMK A01 T02380189  RH  076%=      5-min Rain = 0
KTUR 111240Z 19007KT 24/19 A3009 RMK A01 T02410189  RH  075%=      5-min Rain = 0
KTUR 111245Z 19009KT 24/19 A301 RMK A01 T02430188  RH  073%=      5-min Rain = 0
KTUR 111250Z 20009KT 25/19 A301 RMK A01 T02460187  RH  072%=      5-min Rain = 0
KTUR 111255Z 20010KT 25/19 A301 RMK A01 T02480187  RH  070%=      5-min Rain = 0
KTUR 111300Z 20009KT 25/19 A301 RMK A01 T02490186  RH  070%=      5-min Rain = 0
KTUR 111305Z 20008KT 25/19 A301 RMK A01 T02480187  RH  071%=      5-min Rain = 0
KTUR 111310Z 20007KT 25/19 A301 RMK A01 T02500187  RH  070%=      5-min Rain = 0
KTUR 111315Z 20007KT 25/19 A3011 RMK A01 T02520186  RH  069%=      5-min Rain = 0
KTUR 111320Z 21007KT 25/19 A3011 RMK A01 T02540185  RH  067%=      5-min Rain = 0
KTUR 111325Z 21007KT 26/18 A3011 RMK A01 T02570183  RH  065%=      5-min Rain = 0
KTUR 111330Z 21007KT 26/18 A3011 RMK A01 T02600182  RH  064%=      5-min Rain = 0
KTUR 111335Z 20009KT 26/18 A3011 RMK A01 T02610178  RH  062%=      5-min Rain = 0
KTUR 111340Z 20010KT 26/18 A3011 RMK A01 T02640175  RH  059%=      5-min Rain = 0
KTUR 111345Z 20010G15KT 27/17 A3011 RMK A01 T02670173  RH  058%=      5-min Rain = 0
KTUR 111350Z 20010KT 27/17 A3011 RMK A01 T02650172  RH  058%=      5-min Rain = 0
KTUR 111355Z 20010KT 27/17 A3011 RMK A01 T02650173  RH  058%=      5-min Rain = 0
KTUR 111400Z 20010KT 27/17 A3011 RMK A01 T02690173  RH  057%=      5-min Rain = 0
KTUR 111405Z 20010KT 27/17 A3011 RMK A01 T02740173  RH  055%=      5-min Rain = 0
KTUR 111410Z 20011KT 28/17 A3011 RMK A01 T02770169  RH  053%=      5-min Rain = 0
KTUR 111415Z 20010KT 28/17 A3012 RMK A01 T02800170  RH  053%=      5-min Rain = 0
KTUR 111420Z 21010KT 28/17 A3012 RMK A01 T02810170  RH  052%=      5-min Rain = 0
KTUR 111425Z 20013KT 29/17 A3012 RMK A01 T02850170  RH  051%=      5-min Rain = 0
KTUR 111430Z 20012KT 28/17 A3012 RMK A01 T02830170  RH  052%=      5-min Rain = 0
KTUR 111435Z 20013KT 29/17 A3012 RMK A01 T02860172  RH  051%=      5-min Rain = 0
KTUR 111440Z 20014G19KT 29/17 A3012 RMK A01 T02900170  RH  050%=      5-min Rain = 0
KTUR 111445Z 20013G18KT 29/17 A3012 RMK A01 T02900169  RH  049%=      5-min Rain = 0
KTUR 111450Z 21011KT 29/17 A3012 RMK A01 T02900171  RH  050%=      5-min Rain = 0
KTUR 111455Z 19011KT 29/17 A3012 RMK A01 T02940172  RH  049%=      5-min Rain = 0
KTUR 111500Z 20013KT 30/17 A3012 RMK A01 T02960171  RH  048%=      5-min Rain = 0
KTUR 111505Z 21015KT 30/17 A3012 RMK A01 T02970169  RH  047%=      5-min Rain = 0
KTUR 111510Z 21013KT 30/17 A3012 RMK A01 T03000170  RH  047%=      5-min Rain = 0
KTUR 111515Z 21011KT 29/17 A3012 RMK A01 T02930170  RH  049%=      5-min Rain = 0
KTUR 111520Z 20010KT 29/17 A3011 RMK A01 T02920171  RH  049%=      5-min Rain = 0
KTUR 111525Z 20011KT 30/17 A3011 RMK A01 T02980170  RH  047%=      5-min Rain = 0
KTUR 111530Z 20012KT 30/17 A3011 RMK A01 T02970168  RH  047%=      5-min Rain = 0
KTUR 111535Z 20012KT 30/17 A3011 RMK A01 T03000168  RH  046%=      5-min Rain = 0
KTUR 111540Z 20013KT 30/17 A3011 RMK A01 T03010168  RH  046%=      5-min Rain = 0
KTUR 111545Z 20013KT 31/17 A3011 RMK A01 T03070167  RH  044%=      5-min Rain = 0
KTUR 111550Z 20012KT 31/17 A3011 RMK A01 T03100167  RH  043%=      5-min Rain = 0
KTUR 111555Z 20013KT 31/17 A3011 RMK A01 T03110167  RH  043%=      5-min Rain = 0
KTUR 111600Z 20012KT 31/16 A3011 RMK A01 T03130164  RH  042%=      5-min Rain = 0
KTUR 111605Z 20013KT 31/16 A3011 RMK A01 T03140164  RH  041%=      5-min Rain = 0
KTUR 111610Z 20011G16KT 32/16 A3011 RMK A01 T03150161  RH  040%=      5-min Rain = 0
KTUR 111615Z 21011G16KT 32/16 A3011 RMK A01 T03180159  RH  039%=      5-min Rain = 0
KTUR 111620Z 22011KT 31/16 A3011 RMK A01 T03100160  RH  041%=      5-min Rain = 0
KTUR 111625Z 21012KT 31/16 A3011 RMK A01 T03140158  RH  040%=      5-min Rain = 0
KTUR 111630Z 21010KT 31/16 A3011 RMK A01 T03140158  RH  040%=      5-min Rain = 0
KTUR 111635Z 21009KT 32/16 A3011 RMK A01 T03200157  RH  038%=      5-min Rain = 0
KTUR 111640Z 21010KT 32/16 A301 RMK A01 T03210157  RH  038%=      5-min Rain = 0
KTUR 111645Z 19011G17KT 32/16 A301 RMK A01 T03230160  RH  038%=      5-min Rain = 0
KTUR 111650Z 20010G15KT 32/16 A301 RMK A01 T03240161  RH  039%=      5-min Rain = 0
KTUR 111655Z 19010KT 32/16 A301 RMK A01 T03240160  RH  038%=      5-min Rain = 0
KTUR 111700Z 17008G14KT 32/16 A301 RMK A01 T03230160  RH  038%=      5-min Rain = 0
KTUR 111705Z 17008G15KT 32/16 A3009 RMK A01 T03230155  RH  037%=      5-min Rain = 0
KTUR 111710Z 16008G14KT 33/15 A3009 RMK A01 T03270147  RH  035%=      5-min Rain = 0
KTUR 111715Z 13013G19KT 33/15 A3009 RMK A01 T03330145  RH  033%=      5-min Rain = 0
KTUR 111720Z 14012KT 33/15 A3009 RMK A01 T03340145  RH  033%=      5-min Rain = 0
KTUR 111725Z 15011G16KT 34/15 A3009 RMK A01 T03350145  RH  033%=      5-min Rain = 0
KTUR 111730Z 16011G17KT 33/14 A3009 RMK A01 T03340142  RH  032%=      5-min Rain = 0
KTUR 111735Z 15012G17KT 34/14 A3009 RMK A01 T03370137  RH  030%=      5-min Rain = 0
KTUR 111740Z 15014KT 34/13 A3008 RMK A01 T03390127  RH  028%=      5-min Rain = 0
KTUR 111745Z 15012G17KT 34/13 A3008 RMK A01 T03390132  RH  029%=      5-min Rain = 0
KTUR 111750Z 14014KT 34/14 A3008 RMK A01 T03410136  RH  030%=      5-min Rain = 0
KTUR 111755Z 15013G19KT 34/14 A3008 RMK A01 T03430135  RH  029%=      5-min Rain = 0
KTUR 111800Z 15016G21KT 34/13 A3008 RMK A01 T03430131  RH  028%=      5-min Rain = 0
KTUR 111805Z 15014KT 35/13 A3008 RMK A01 T03450127  RH  027%=      5-min Rain = 0
KTUR 111810Z 16015G20KT 34/13 A3007 RMK A01 T03420126  RH  028%=      5-min Rain = 0
KTUR 111815Z 16012G18KT 34/13 A3008 RMK A01 T03400134  RH  029%=      5-min Rain = 0
KTUR 111820Z 16014G19KT 34/13 A3007 RMK A01 T03430133  RH  029%=      5-min Rain = 0
KTUR 111825Z 16016KT 34/14 A3007 RMK A01 T03440136  RH  029%=      5-min Rain = 0
KTUR 111830Z 15013G19KT 35/14 A3007 RMK A01 T03460138  RH  029%=      5-min Rain = 0
KTUR 111835Z 16012G17KT 34/13 A3007 RMK A01 T03440134  RH  029%=      5-min Rain = 0
KTUR 111840Z 15008G15KT 34/13 A3007 RMK A01 T03370133  RH  030%=      5-min Rain = 0
KTUR 111845Z 14011KT 34/13 A3006 RMK A01 T03400130  RH  029%=      5-min Rain = 0
KTUR 111850Z 15015G24KT 34/13 A3006 RMK A01 T03410125  RH  028%=      5-min Rain = 0
KTUR 111855Z 16017G22KT 35/12 A3006 RMK A01 T03460124  RH  027%=      5-min Rain = 0
KTUR 111900Z 16014G23KT 35/13 A3006 RMK A01 T03460127  RH  027%=      5-min Rain = 0
KTUR 111905Z 15014G19KT 35/13 A3006 RMK A01 T03490130  RH  027%=      5-min Rain = 0
KTUR 111910Z 14014G19KT 35/13 A3006 RMK A01 T03460131  RH  028%=      5-min Rain = 0
KTUR 111915Z 17014G19KT 34/13 A3005 RMK A01 T03380133  RH  030%=      5-min Rain = 0
KTUR 111920Z 15012G17KT 34/13 A3005 RMK A01 T03380133  RH  030%=      5-min Rain = 0
KTUR 111925Z 15015G23KT 34/13 A3005 RMK A01 T03420131  RH  029%=      5-min Rain = 0
KTUR 111930Z 15015G22KT 34/13 A3005 RMK A01 T03390127  RH  028%=      5-min Rain = 0
KTUR 111935Z 17015G21KT 35/13 A3005 RMK A01 T03470126  RH  027%=      5-min Rain = 0
KTUR 111940Z 16014G19KT 35/13 A3005 RMK A01 T03490129  RH  027%=      5-min Rain = 0
KTUR 111945Z 14013KT 34/13 A3005 RMK A01 T03440129  RH  028%=      5-min Rain = 0
KTUR 111950Z 14012G19KT 35/13 A3004 RMK A01 T03460130  RH  028%=      5-min Rain = 0
KTUR 111955Z 16017KT 35/13 A3004 RMK A01 T03510132  RH  027%=      5-min Rain = 0
KTUR 112000Z 16013KT 35/13 A3004 RMK A01 T03450130  RH  028%=      5-min Rain = 0
KTUR 112005Z 16013G20KT 34/13 A3004 RMK A01 T03380133  RH  030%=      5-min Rain = 0
KTUR 112010Z 15014G20KT 34/14 A3004 RMK A01 T03390139  RH  031%=      5-min Rain = 0
KTUR 112015Z 15011KT 35/14 A3004 RMK A01 T03450139  RH  030%=      5-min Rain = 0
KTUR 112020Z 16014KT 34/14 A3004 RMK A01 T03410137  RH  030%=      5-min Rain = 0
KTUR 112025Z 14014KT 34/14 A3003 RMK A01 T03390137  RH  030%=      5-min Rain = 0
KTUR 112030Z 14013G19KT 34/14 A3003 RMK A01 T03390138  RH  030%=      5-min Rain = 0
KTUR 112035Z 13014G19KT 34/14 A3003 RMK A01 T03420138  RH  030%=      5-min Rain = 0
KTUR 112040Z 15011G17KT 35/14 A3003 RMK A01 T03460138  RH  029%=      5-min Rain = 0
KTUR 112045Z 16015G22KT 35/14 A3003 RMK A01 T03530138  RH  028%=      5-min Rain = 0
KTUR 112050Z 15016KT 36/14 A3002 RMK A01 T03550137  RH  028%=      5-min Rain = 0
KTUR 112055Z 16013G18KT 35/13 A3002 RMK A01 T03520133  RH  027%=      5-min Rain = 0
KTUR 112100Z 16013G18KT 35/13 A3002 RMK A01 T03460130  RH  028%=      5-min Rain = 0
KTUR 112105Z 13011G18KT 34/13 A3001 RMK A01 T03430132  RH  029%=      5-min Rain = 0
KTUR 112110Z 14013G23KT 35/13 A3001 RMK A01 T03470133  RH  028%=      5-min Rain = 0
KTUR 112115Z 14013KT 35/13 A3001 RMK A01 T03490133  RH  028%=      5-min Rain = 0
KTUR 112120Z 13014G20KT 35/13 A3001 RMK A01 T03480128  RH  027%=      5-min Rain = 0
KTUR 112125Z 14014G20KT 35/13 A30 RMK A01 T03450126  RH  027%=      5-min Rain = 0
KTUR 112130Z 14013G18KT 35/13 A30 RMK A01 T03450129  RH  028%=      5-min Rain = 0
KTUR 112135Z 13013G19KT 35/13 A30 RMK A01 T03510129  RH  027%=      5-min Rain = 0
KTUR 112140Z 14014G19KT 35/13 A30 RMK A01 T03500126  RH  026%=      5-min Rain = 0
KTUR 112145Z 16011KT 35/13 A30 RMK A01 T03490126  RH  027%=      5-min Rain = 0
KTUR 112150Z 15012G19KT 35/13 A2999 RMK A01 T03450126  RH  027%=      5-min Rain = 0
KTUR 112155Z 15016KT 35/13 A2999 RMK A01 T03450125  RH  027%=      5-min Rain = 0
KTUR 112200Z 15016G21KT 35/13 A2999 RMK A01 T03510126  RH  026%=      5-min Rain = 0
KTUR 112205Z 15014KT 36/13 A2999 RMK A01 T03560126  RH  025%=      5-min Rain = 0
KTUR 112210Z 16014KT 35/12 A2998 RMK A01 T03520123  RH  026%=      5-min Rain = 0
KTUR 112215Z 15015KT 35/12 A2998 RMK A01 T03520123  RH  026%=      5-min Rain = 0
KTUR 112220Z 15013KT 36/12 A2998 RMK A01 T03560123  RH  025%=      5-min Rain = 0
KTUR 112225Z 14013G18KT 36/12 A2998 RMK A01 T03560122  RH  025%=      5-min Rain = 0
KTUR 112230Z 16014KT 35/12 A2998 RMK A01 T03510122  RH  026%=      5-min Rain = 0
KTUR 112235Z 16010G15KT 35/12 A2998 RMK A01 T03480122  RH  026%=      5-min Rain = 0
KTUR 112240Z 15012G17KT 35/12 A2998 RMK A01 T03470121  RH  026%=      5-min Rain = 0
KTUR 112245Z 17013KT 35/12 A2998 RMK A01 T03450121  RH  026%=      5-min Rain = 0
KTUR 112250Z 16012KT 34/12 A2998 RMK A01 T03440120  RH  026%=      5-min Rain = 0
KTUR 112255Z 16013KT 34/12 A2998 RMK A01 T03440121  RH  026%=      5-min Rain = 0
KTUR 112300Z 16012KT 35/12 A2998 RMK A01 T03450120  RH  026%=      5-min Rain = 0
KTUR 112305Z 15014KT 35/12 A2998 RMK A01 T03450121  RH  026%=      5-min Rain = 0
KTUR 112310Z 15013KT 34/12 A2998 RMK A01 T03440121  RH  026%=      5-min Rain = 0
KTUR 112315Z 15012KT 35/12 A2998 RMK A01 T03450121  RH  026%=      5-min Rain = 0
KTUR 112320Z 14013KT 35/12 A2998 RMK A01 T03460120  RH  026%=      5-min Rain = 0
KTUR 112325Z 14012KT 35/12 A2998 RMK A01 T03460120  RH  026%=      5-min Rain = 0
KTUR 112330Z 14012KT 35/12 A2998 RMK A01 T03450119  RH  026%=      5-min Rain = 0
KTUR 112335Z 14014KT 34/12 A2998 RMK A01 T03440120  RH  026%=      5-min Rain = 0
KTUR 112340Z 13014G19KT 34/12 A2998 RMK A01 T03430121  RH  027%=      5-min Rain = 0
KTUR 112345Z 14013KT 35/12 A2998 RMK A01 T03450123  RH  027%=      5-min Rain = 0
KTUR 112350Z 14015KT 35/12 A2998 RMK A01 T03460120  RH  026%=      5-min Rain = 0
KTUR 112355Z 14013KT 34/12 A2998 RMK A01 T03430120  RH  026%=      5-min Rain = 0
KTUR 120000Z 14013KT 34/12 A2998 RMK A01 T03420120  RH  027%=      5-min Rain = 0
KTUR 120005Z 15012KT 34/12 A2998 RMK A01 T03410120  RH  027%=      5-min Rain = 0
KTUR 120010Z 14013KT 34/12 A2998 RMK A01 T03400119  RH  027%=      5-min Rain = 0
KTUR 120015Z 15012KT 34/12 A2998 RMK A01 T03400120  RH  027%=      5-min Rain = 0
KTUR 120020Z 15011KT 34/12 A2998 RMK A01 T03390121  RH  027%=      5-min Rain = 0
KTUR 120025Z 15010KT 34/12 A2998 RMK A01 T03390121  RH  027%=      5-min Rain = 0
KTUR 120030Z 15010KT 34/12 A2998 RMK A01 T03400123  RH  027%=      5-min Rain = 0
KTUR 120035Z 14011KT 34/12 A2998 RMK A01 T03390122  RH  027%=      5-min Rain = 0
KTUR 120040Z 14010KT 34/12 A2998 RMK A01 T03390123  RH  027%=      5-min Rain = 0
KTUR 120045Z 14010KT 34/12 A2998 RMK A01 T03400122  RH  027%=      5-min Rain = 0
KTUR 120050Z 14012KT 34/12 A2998 RMK A01 T03400121  RH  027%=      5-min Rain = 0
KTUR 120055Z 14012KT 34/12 A2998 RMK A01 T03400122  RH  027%=      5-min Rain = 0
KTUR 120100Z 14010KT 34/12 A2999 RMK A01 T03370124  RH  028%=      5-min Rain = 0
KTUR 120105Z 14011KT 34/12 A2999 RMK A01 T03360124  RH  028%=      5-min Rain = 0
KTUR 120110Z 14010KT 33/13 A2999 RMK A01 T03340126  RH  029%=      5-min Rain = 0
KTUR 120115Z 14010KT 33/13 A2999 RMK A01 T03340128  RH  029%=      5-min Rain = 0
KTUR 120120Z 13008KT 33/13 A2999 RMK A01 T03330129  RH  030%=      5-min Rain = 0
KTUR 120125Z 13009KT 33/13 A2999 RMK A01 T03310129  RH  030%=      5-min Rain = 0
KTUR 120130Z 13008KT 33/13 A2999 RMK A01 T03290129  RH  030%=      5-min Rain = 0
KTUR 120135Z 13008KT 33/13 A2999 RMK A01 T03280130  RH  031%=      5-min Rain = 0
KTUR 120140Z 13006KT 33/13 A2999 RMK A01 T03260134  RH  032%=      5-min Rain = 0
KTUR 120145Z 12007KT 32/14 A2999 RMK A01 T03230135  RH  033%=      5-min Rain = 0
KTUR 120150Z 12007KT 32/14 A2999 RMK A01 T03210136  RH  033%=      5-min Rain = 0
KTUR 120155Z 12007KT 32/14 A2999 RMK A01 T03180136  RH  034%=      5-min Rain = 0
KTUR 120200Z 12008KT 32/14 A2999 RMK A01 T03170135  RH  034%=      5-min Rain = 0
KTUR 120205Z 12009KT 32/14 A2999 RMK A01 T03160135  RH  034%=      5-min Rain = 0
KTUR 120210Z 12009KT 32/14 A30 RMK A01 T03150135  RH  034%=      5-min Rain = 0
KTUR 120215Z 12009KT 31/14 A30 RMK A01 T03140135  RH  034%=      5-min Rain = 0
KTUR 120220Z 12009KT 31/14 A30 RMK A01 T03140135  RH  034%=      5-min Rain = 0
KTUR 120225Z 12009KT 31/14 A30 RMK A01 T03130135  RH  034%=      5-min Rain = 0
KTUR 120230Z 12009KT 31/14 A30 RMK A01 T03130135  RH  034%=      5-min Rain = 0
KTUR 120235Z 13008KT 31/14 A3001 RMK A01 T03120137  RH  035%=      5-min Rain = 0
KTUR 120240Z 12008KT 31/14 A3001 RMK A01 T03100138  RH  036%=      5-min Rain = 0
KTUR 120245Z 12009KT 31/14 A3001 RMK A01 T03090138  RH  036%=      5-min Rain = 0
KTUR 120250Z 12008KT 31/14 A3001 RMK A01 T03080140  RH  037%=      5-min Rain = 0
KTUR 120255Z 12008KT 31/14 A3002 RMK A01 T03060140  RH  037%=      5-min Rain = 0
KTUR 120300Z 12008KT 31/14 A3002 RMK A01 T03050141  RH  038%=      5-min Rain = 0
KTUR 120305Z 12008KT 30/14 A3002 RMK A01 T03040142  RH  038%=      5-min Rain = 0
KTUR 120310Z 12009KT 30/14 A3002 RMK A01 T03020143  RH  039%=      5-min Rain = 0
KTUR 120315Z 13009KT 30/14 A3003 RMK A01 T03020144  RH  039%=      5-min Rain = 0
KTUR 120320Z 13009KT 30/15 A3003 RMK A01 T03000145  RH  040%=      5-min Rain = 0
KTUR 120325Z 13009KT 30/15 A3003 RMK A01 T02980146  RH  040%=      5-min Rain = 0
KTUR 120330Z 13008KT 30/15 A3004 RMK A01 T02960148  RH  041%=      5-min Rain = 0
KTUR 120335Z 13008KT 30/15 A3004 RMK A01 T02950148  RH  042%=      5-min Rain = 0
KTUR 120340Z 13008KT 29/15 A3004 RMK A01 T02940149  RH  042%=      5-min Rain = 0
KTUR 120345Z 14008KT 29/15 A3004 RMK A01 T02930149  RH  043%=      5-min Rain = 0
KTUR 120350Z 14008KT 29/15 A3004 RMK A01 T02920149  RH  043%=      5-min Rain = 0
KTUR 120355Z 14007KT 29/15 A3004 RMK A01 T02910150  RH  043%=      5-min Rain = 0
KTUR 120400Z 15007KT 29/15 A3004 RMK A01 T02880152  RH  045%=      5-min Rain = 0
KTUR 120405Z 14006KT 29/15 A3004 RMK A01 T02860152  RH  045%=      5-min Rain = 0
KTUR 120410Z 14006KT 29/15 A3004 RMK A01 T02850152  RH  046%=      5-min Rain = 0
KTUR 120415Z 14006KT 28/15 A3004 RMK A01 T02830152  RH  046%=      5-min Rain = 0
KTUR 120420Z 14006KT 28/15 A3004 RMK A01 T02820153  RH  046%=      5-min Rain = 0
KTUR 120425Z 14006KT 28/15 A3004 RMK A01 T02800154  RH  047%=      5-min Rain = 0
KTUR 120430Z 13006KT 28/16 A3004 RMK A01 T02770156  RH  049%=      5-min Rain = 0
KTUR 120435Z 13005KT 28/16 A3004 RMK A01 T02750157  RH  050%=      5-min Rain = 0
KTUR 120440Z 13005KT 27/16 A3004 RMK A01 T02720158  RH  051%=      5-min Rain = 0
KTUR 120445Z 14005KT 27/16 A3004 RMK A01 T02710158  RH  051%=      5-min Rain = 0
KTUR 120450Z 14005KT 27/16 A3004 RMK A01 T02690158  RH  052%=      5-min Rain = 0
KTUR 120455Z 14005KT 27/16 A3004 RMK A01 T02690157  RH  051%=      5-min Rain = 0

Page generated in 0.0091 seconds.